Riverside, Alabama
Current Conditions -  °F | °C
As of 5:15 PM on Wednesday 17 Dec 2014 (Local Time) from KASN Reporting Station
Clear Clear  
Wind Chill: 44°   Ceiling: Unl
Heat Index: 44°   Visibility: 10mi
Dew Point: 37°   Wind: 3mph
Humidity: 75%   Direction: 290°WNW
Pressure: 30.23"   Gusts: NA
Location:  33.61°N, 86.21°W
Report Text: KASN 172315Z AUTO 29003KT 10SM CLR 07/03 A3023 RMK AO2 T00690027
Loading
Personal Weather Stations






























Interactive Weather Map New forecast layout! Learn more

10-Day Weather Forecast

Advertisements
Track Severe Weather on mobile